createdAt,value
2023-01-13T00:01:17.012Z,1.63
2023-01-13T00:03:43.902Z,1.35
2023-01-13T00:06:16.028Z,0.70
2023-01-13T00:08:42.673Z,1.77
2023-01-13T00:11:10.161Z,0.65
2023-01-13T00:13:40.308Z,0.90
2023-01-13T00:16:09.696Z,1.73
2023-01-13T00:21:17.148Z,1.38
2023-01-13T00:23:44.543Z,1.20
2023-01-13T00:26:14.827Z,0.70
2023-01-13T00:28:41.895Z,1.55
2023-01-13T00:31:17.205Z,0.93
2023-01-13T00:33:44.006Z,1.83
2023-01-13T00:36:13.422Z,2.08
2023-01-13T00:41:09.527Z,0.70
2023-01-13T00:43:37.326Z,1.20
2023-01-13T00:46:05.759Z,0.70
2023-01-13T00:48:32.969Z,1.60
2023-01-13T00:51:05.855Z,1.35
2023-01-13T00:53:41.311Z,1.23
2023-01-13T00:56:14.286Z,1.92
2023-01-13T00:58:42.068Z,1.30
2023-01-13T01:01:12.051Z,1.30
2023-01-13T01:03:38.824Z,4.03
2023-01-13T01:06:08.600Z,1.23
2023-01-13T01:08:36.054Z,3.03
2023-01-13T01:11:07.783Z,0.70
2023-01-13T01:13:34.904Z,1.08
2023-01-13T01:16:06.915Z,0.75
2023-01-13T01:18:39.934Z,2.53
2023-01-13T01:21:06.916Z,1.75
2023-01-13T01:23:35.012Z,1.60
2023-01-13T01:26:11.029Z,0.38
2023-01-13T01:28:37.657Z,1.05
2023-01-13T01:31:09.322Z,0.68
2023-01-13T01:33:36.019Z,0.70
2023-01-13T01:36:03.457Z,0.88
2023-01-13T01:38:30.045Z,1.00
2023-01-13T01:40:56.677Z,2.00
2023-01-13T01:44:02.519Z,2.28
2023-01-13T01:46:38.033Z,1.35
2023-01-13T01:49:23.875Z,0.63
2023-01-13T01:51:56.313Z,1.38
2023-01-13T01:54:27.679Z,0.60
2023-01-13T01:56:55.291Z,2.03
2023-01-13T01:59:22.013Z,0.75
2023-01-13T02:01:48.767Z,1.02
2023-01-13T02:04:21.168Z,1.10
2023-01-13T02:06:49.155Z,3.03
2023-01-13T02:09:17.220Z,0.88
2023-01-13T02:12:03.010Z,0.63
2023-01-13T02:14:30.652Z,0.28
2023-01-13T02:17:12.581Z,1.20
2023-01-13T02:19:54.348Z,0.73
2023-01-13T02:22:23.861Z,2.10
2023-01-13T02:27:57.191Z,1.23
2023-01-13T02:30:58.741Z,0.80
2023-01-13T02:33:51.282Z,0.55
2023-01-13T02:36:47.659Z,0.45
2023-01-13T02:39:22.892Z,0.40
2023-01-13T02:42:24.053Z,2.25
2023-01-13T02:45:02.473Z,0.82
2023-01-13T02:47:32.685Z,0.63
2023-01-13T02:50:28.984Z,1.23
2023-01-13T02:53:01.268Z,1.85
2023-01-13T02:55:41.518Z,1.50
2023-01-13T02:58:12.070Z,1.25
2023-01-13T03:00:39.646Z,1.35
2023-01-13T03:03:06.181Z,1.13
2023-01-13T03:05:34.549Z,2.53
2023-01-13T03:08:22.304Z,1.20
2023-01-13T03:11:04.120Z,0.25
2023-01-13T03:13:42.633Z,0.70
2023-01-13T03:16:09.208Z,0.52
2023-01-13T03:18:41.811Z,0.52
2023-01-13T03:21:34.345Z,1.05
2023-01-13T03:24:07.209Z,1.40
2023-01-13T03:26:43.945Z,3.80
2023-01-13T03:29:18.894Z,1.35
2023-01-13T03:31:58.817Z,3.53
2023-01-13T03:34:33.595Z,3.45
2023-01-13T03:37:05.705Z,1.50
2023-01-13T03:39:36.583Z,1.27
2023-01-13T03:42:11.826Z,1.17
2023-01-13T03:44:49.442Z,1.27
2023-01-13T03:47:31.661Z,1.40
2023-01-13T03:50:01.202Z,1.65
2023-01-13T03:52:41.320Z,1.60
2023-01-13T03:55:13.881Z,0.57
2023-01-13T03:57:59.674Z,0.20
2023-01-13T04:00:32.380Z,0.70
2023-01-13T04:03:06.285Z,1.48
2023-01-13T04:05:39.453Z,1.15
2023-01-13T04:08:18.035Z,0.98
2023-01-13T04:11:12.090Z,1.45
2023-01-13T04:13:41.908Z,0.95
2023-01-13T04:16:11.312Z,1.17
2023-01-13T04:18:39.754Z,1.30
2023-01-13T04:21:07.791Z,1.02
2023-01-13T04:23:34.812Z,0.52
2023-01-13T04:26:01.395Z,0.20
2023-01-13T04:28:27.994Z,1.13
2023-01-13T04:30:54.592Z,0.80
2023-01-13T04:33:21.213Z,1.10
2023-01-13T04:35:48.313Z,0.57
2023-01-13T04:38:17.444Z,1.33
2023-01-13T04:40:44.562Z,0.88
2023-01-13T04:43:11.306Z,1.08
2023-01-13T04:45:38.248Z,0.60
2023-01-13T04:48:05.457Z,1.15
2023-01-13T04:50:32.035Z,0.38
2023-01-13T04:53:00.365Z,0.55
2023-01-13T04:55:27.628Z,0.45
2023-01-13T04:57:54.292Z,1.25
2023-01-13T05:00:22.897Z,1.27
2023-01-13T05:02:51.009Z,0.52
2023-01-13T05:05:18.348Z,0.57
2023-01-13T05:07:44.875Z,0.90
2023-01-13T05:10:11.863Z,0.32
2023-01-13T05:12:57.184Z,1.45
2023-01-13T05:15:41.987Z,0.03
2023-01-13T05:18:08.986Z,0.63
2023-01-13T05:20:35.508Z,0.90
2023-01-13T05:23:20.382Z,0.65
2023-01-13T05:25:48.309Z,2.17
2023-01-13T05:28:15.743Z,0.40
2023-01-13T05:30:46.035Z,1.88
2023-01-13T05:33:15.243Z,0.30
2023-01-13T05:35:43.806Z,1.25
2023-01-13T05:38:11.201Z,1.30
2023-01-13T05:40:59.390Z,0.88
2023-01-13T05:43:26.600Z,0.80
2023-01-13T05:45:59.036Z,0.65
2023-01-13T05:48:39.139Z,1.00
2023-01-13T05:51:08.046Z,0.90
2023-01-13T05:53:35.304Z,1.25
2023-01-13T05:56:05.150Z,0.88
2023-01-13T05:58:31.921Z,1.05
2023-01-13T06:01:16.704Z,0.63
2023-01-13T06:03:43.226Z,1.05
2023-01-13T06:06:09.783Z,1.20
2023-01-13T06:08:39.303Z,0.55
2023-01-13T06:11:06.238Z,0.82
2023-01-13T06:13:32.756Z,1.63
2023-01-13T06:15:59.676Z,1.55
2023-01-13T06:18:26.582Z,1.27
2023-01-13T06:20:53.160Z,1.05
2023-01-13T06:23:19.740Z,0.57
2023-01-13T06:26:02.301Z,0.30
2023-01-13T06:28:28.889Z,2.03
2023-01-13T06:31:00.168Z,0.52
2023-01-13T06:33:34.836Z,1.08
2023-01-13T06:36:06.558Z,1.10
2023-01-13T06:38:37.488Z,0.75
2023-01-13T06:41:06.275Z,1.77
2023-01-13T06:43:33.119Z,0.63
2023-01-13T06:46:01.475Z,1.55
2023-01-13T06:48:34.985Z,1.23
2023-01-13T06:51:02.616Z,1.30
2023-01-13T06:53:29.160Z,0.70
2023-01-13T06:55:55.667Z,0.65
2023-01-13T06:58:22.211Z,1.17
2023-01-13T07:00:51.363Z,0.68
2023-01-13T07:03:19.591Z,1.00
2023-01-13T07:05:52.542Z,0.60
2023-01-13T07:08:19.665Z,1.52
2023-01-13T07:10:46.243Z,0.73
2023-01-13T07:13:31.319Z,0.28
2023-01-13T07:16:00.735Z,0.93
2023-01-13T07:20:56.991Z,0.70
2023-01-13T07:23:24.304Z,1.02
2023-01-13T07:25:51.017Z,1.02
2023-01-13T07:28:17.633Z,1.23
2023-01-13T07:30:44.311Z,0.45
2023-01-13T07:33:10.854Z,1.60
2023-01-13T07:35:37.434Z,1.23
2023-01-13T07:38:03.967Z,0.75
2023-01-13T07:40:30.704Z,1.17
2023-01-13T07:43:20.285Z,0.57
2023-01-13T07:45:46.954Z,1.05
2023-01-13T07:48:13.541Z,1.15
2023-01-13T07:50:41.550Z,2.80
2023-01-13T07:53:09.252Z,0.40
2023-01-13T07:55:35.750Z,1.50
2023-01-13T07:58:02.703Z,0.63
2023-01-13T08:00:29.346Z,0.88
2023-01-13T08:02:56.035Z,0.75
2023-01-13T08:05:22.673Z,0.68
2023-01-13T08:07:49.218Z,0.68
2023-01-13T08:10:16.053Z,0.22
2023-01-13T08:13:01.150Z,0.50
2023-01-13T08:15:29.657Z,0.52
2023-01-13T08:17:56.174Z,0.38
2023-01-13T08:20:22.711Z,1.65
2023-01-13T08:22:49.258Z,0.45
2023-01-13T08:25:15.879Z,1.88
2023-01-13T08:27:42.398Z,0.22
2023-01-13T08:30:09.689Z,0.47
2023-01-13T08:32:36.305Z,1.65
2023-01-13T08:35:02.868Z,1.92
2023-01-13T08:37:29.453Z,0.30
2023-01-13T08:39:55.971Z,0.82
2023-01-13T08:42:22.485Z,0.93
2023-01-13T08:44:49.017Z,0.98
2023-01-13T08:47:15.649Z,1.10
2023-01-13T08:49:42.252Z,1.58
2023-01-13T08:52:08.861Z,1.48
2023-01-13T08:54:36.372Z,1.10
2023-01-13T08:57:03.404Z,2.47
2023-01-13T08:59:30.093Z,1.42
2023-01-13T09:01:56.789Z,1.00
2023-01-13T09:04:25.882Z,1.17
2023-01-13T09:06:52.423Z,0.70
2023-01-13T09:09:22.123Z,0.77
2023-01-13T09:12:09.235Z,1.10
2023-01-13T09:14:37.681Z,0.73
2023-01-13T09:17:04.769Z,1.20
2023-01-13T09:19:31.329Z,1.05
2023-01-13T09:21:58.012Z,1.63
2023-01-13T09:24:25.954Z,0.98
2023-01-13T09:26:52.801Z,1.08
2023-01-13T09:29:19.773Z,0.32
2023-01-13T09:31:46.825Z,0.15
2023-01-13T09:34:34.556Z,0.90
2023-01-13T09:37:01.429Z,0.57
2023-01-13T09:39:27.992Z,2.53
2023-01-13T09:42:16.965Z,1.10
2023-01-13T09:45:14.769Z,1.08
2023-01-13T09:48:07.523Z,1.58
2023-01-13T09:50:49.858Z,1.85
2023-01-13T09:53:25.463Z,0.57
2023-01-13T09:55:52.984Z,2.38
2023-01-13T09:58:19.848Z,1.25
2023-01-13T10:01:07.617Z,0.82
2023-01-13T10:03:35.743Z,2.35
2023-01-13T10:06:13.612Z,0.45
2023-01-13T10:08:45.666Z,1.83
2023-01-13T10:11:41.687Z,0.50
2023-01-13T10:14:14.086Z,2.65
2023-01-13T10:17:26.001Z,1.23
2023-01-13T10:19:55.300Z,0.80
2023-01-13T10:22:34.363Z,1.80
2023-01-13T10:25:20.572Z,1.63
2023-01-13T10:27:54.252Z,1.30
2023-01-13T10:30:31.407Z,1.13
2023-01-13T10:33:00.333Z,1.10
2023-01-13T10:35:49.296Z,0.20
2023-01-13T10:38:19.040Z,1.52
2023-01-13T10:40:51.350Z,2.38
2023-01-13T10:43:17.949Z,2.45
2023-01-13T10:45:55.850Z,2.15
2023-01-13T10:48:22.435Z,1.83
2023-01-13T10:50:49.187Z,0.95
2023-01-13T10:53:23.870Z,2.20
2023-01-13T10:56:04.762Z,1.90
2023-01-13T10:58:31.318Z,1.75
2023-01-13T11:01:06.233Z,1.73
2023-01-13T11:03:41.421Z,2.10
2023-01-13T11:06:21.089Z,2.10
2023-01-13T11:08:50.233Z,1.10
2023-01-13T11:11:35.059Z,1.60
2023-01-13T11:14:23.931Z,1.70
2023-01-13T11:16:55.244Z,0.82
2023-01-13T11:19:24.700Z,1.50
2023-01-13T11:24:51.052Z,1.73
2023-01-13T11:27:20.485Z,2.70
2023-01-13T11:29:56.099Z,0.85
2023-01-13T11:34:59.357Z,1.90
2023-01-13T11:37:27.471Z,2.15
2023-01-13T11:40:06.151Z,2.17
2023-01-13T11:42:48.416Z,1.75
2023-01-13T11:45:44.208Z,0.85
2023-01-13T11:48:23.716Z,1.17
2023-01-13T11:50:57.113Z,2.85
2023-01-13T11:53:42.399Z,0.95
2023-01-13T11:56:08.858Z,1.27
2023-01-13T11:59:29.039Z,1.98
2023-01-13T12:02:20.051Z,1.98
2023-01-13T12:05:05.416Z,1.65
2023-01-13T12:08:02.641Z,2.05
2023-01-13T12:10:53.659Z,1.63
2023-01-13T12:13:34.408Z,1.60
2023-01-13T12:16:28.627Z,2.08
2023-01-13T12:19:07.640Z,1.25
2023-01-13T12:21:39.866Z,1.15
2023-01-13T12:24:38.121Z,1.77
2023-01-13T12:27:13.884Z,0.50
2023-01-13T12:29:40.581Z,1.90
2023-01-13T12:32:21.029Z,2.50
2023-01-13T12:34:57.111Z,2.83
2023-01-13T12:37:26.415Z,0.68
2023-01-13T12:40:18.851Z,1.90
2023-01-13T12:43:14.099Z,0.82
2023-01-13T12:45:40.735Z,3.33
2023-01-13T12:48:07.322Z,0.85
2023-01-13T12:50:33.831Z,2.15
2023-01-13T12:53:21.569Z,1.17
2023-01-13T12:55:52.126Z,1.25
2023-01-13T12:58:28.108Z,2.38
2023-01-13T13:00:58.915Z,1.15
2023-01-13T13:03:35.715Z,1.73
2023-01-13T13:06:22.941Z,1.48
2023-01-13T13:09:20.151Z,2.78
2023-01-13T13:12:03.833Z,1.40
2023-01-13T13:14:39.698Z,1.50
2023-01-13T13:17:28.069Z,0.82
2023-01-13T13:19:56.439Z,2.33
2023-01-13T13:22:35.108Z,1.33
2023-01-13T13:25:04.460Z,1.00
2023-01-13T13:27:37.104Z,2.22
2023-01-13T13:30:17.103Z,3.28
2023-01-13T13:32:56.268Z,2.17
2023-01-13T13:35:22.918Z,0.80
2023-01-13T13:38:22.868Z,1.08
2023-01-13T13:41:08.816Z,1.50
2023-01-13T13:44:01.846Z,2.10
2023-01-13T13:46:46.813Z,1.23
2023-01-13T13:49:21.429Z,1.45
2023-01-13T13:51:53.582Z,2.50
2023-01-13T13:54:22.531Z,2.47
2023-01-13T13:56:50.422Z,1.40
2023-01-13T13:59:21.490Z,1.60
2023-01-13T14:02:00.755Z,4.32
2023-01-13T14:04:30.410Z,2.03
2023-01-13T14:07:04.925Z,1.08
2023-01-13T14:09:41.635Z,0.47
2023-01-13T14:12:20.629Z,1.17
2023-01-13T14:14:49.085Z,1.55
2023-01-13T14:17:27.705Z,1.85
2023-01-13T14:20:07.997Z,0.95
2023-01-13T14:22:34.715Z,1.58
2023-01-13T14:25:02.049Z,1.45
2023-01-13T14:27:30.824Z,0.95
2023-01-13T14:30:00.307Z,1.65
2023-01-13T14:35:07.873Z,0.70
2023-01-13T14:37:40.928Z,1.60
2023-01-13T14:40:35.914Z,1.05
2023-01-13T14:43:10.624Z,1.13
2023-01-13T14:45:37.242Z,1.58
2023-01-13T14:48:08.726Z,1.50
2023-01-13T14:50:35.430Z,1.75
2023-01-13T14:53:02.200Z,1.75
2023-01-13T14:55:32.712Z,1.60
2023-01-13T14:58:23.501Z,1.50
2023-01-13T15:00:52.530Z,1.25
2023-01-13T15:03:21.304Z,0.65
2023-01-13T15:05:50.240Z,2.28
2023-01-13T15:08:26.331Z,1.10
2023-01-13T15:11:05.224Z,1.90
2023-01-13T15:13:38.577Z,2.58
2023-01-13T15:16:13.678Z,1.48
2023-01-13T15:18:41.278Z,1.52
2023-01-13T15:21:09.520Z,1.80
2023-01-13T15:23:36.941Z,2.53
2023-01-13T15:26:03.885Z,0.85
2023-01-13T15:28:32.158Z,1.50
2023-01-13T15:31:01.661Z,1.80
2023-01-13T15:33:28.222Z,0.88
2023-01-13T15:35:54.910Z,5.05
2023-01-13T15:38:23.576Z,3.42
2023-01-13T15:40:51.854Z,7.00
2023-01-13T15:43:39.377Z,3.90
2023-01-13T15:46:36.092Z,3.85
2023-01-13T15:49:22.909Z,2.92
2023-01-13T15:51:49.974Z,1.65
2023-01-13T15:54:16.550Z,2.50
2023-01-13T15:56:43.169Z,5.30
2023-01-13T15:59:17.496Z,4.15
2023-01-13T16:01:45.746Z,1.67
2023-01-13T16:04:12.333Z,2.60
2023-01-13T16:06:38.928Z,4.95
2023-01-13T16:09:05.748Z,2.80
2023-01-13T16:11:32.571Z,3.63
2023-01-13T16:13:59.301Z,3.13
2023-01-13T16:16:27.939Z,3.10
2023-01-13T16:18:55.032Z,5.07
2023-01-13T16:21:22.321Z,5.85
2023-01-13T16:23:50.388Z,4.72
2023-01-13T16:26:29.095Z,6.68
2023-01-13T16:28:57.301Z,12.60
2023-01-13T16:31:32.982Z,9.07
2023-01-13T16:34:01.434Z,7.70
2023-01-13T16:36:30.189Z,10.10
2023-01-13T16:38:57.165Z,4.40
2023-01-13T16:41:25.020Z,6.95
2023-01-13T16:43:51.822Z,3.33
2023-01-13T16:46:29.295Z,2.47
2023-01-13T16:49:01.796Z,3.83
2023-01-13T16:51:28.384Z,5.78
2023-01-13T16:53:54.932Z,3.58
2023-01-13T16:56:33.286Z,3.33
2023-01-13T16:59:05.665Z,2.58
2023-01-13T17:01:34.554Z,2.15
2023-01-13T17:04:01.595Z,3.60
2023-01-13T17:06:31.015Z,1.77
2023-01-13T17:09:06.352Z,4.60
2023-01-13T17:11:33.162Z,4.07
2023-01-13T17:13:59.880Z,3.50
2023-01-13T17:16:27.002Z,2.47
2023-01-13T17:18:53.943Z,3.70
2023-01-13T17:21:20.557Z,4.13
2023-01-13T17:23:47.148Z,2.20
2023-01-13T17:26:49.017Z,2.35
2023-01-13T17:29:22.197Z,3.33
2023-01-13T17:31:50.484Z,4.50
2023-01-13T17:34:17.233Z,4.57
2023-01-13T17:36:43.894Z,5.70
2023-01-13T17:39:16.911Z,5.82
2023-01-13T17:41:43.665Z,3.55
2023-01-13T17:44:13.819Z,3.20
2023-01-13T17:46:42.092Z,2.08
2023-01-13T17:49:17.453Z,2.03
2023-01-13T17:51:47.363Z,4.55
2023-01-13T17:54:15.254Z,9.80
2023-01-13T17:56:42.295Z,2.70
2023-01-13T17:59:11.096Z,1.70
2023-01-13T18:01:38.121Z,3.10
2023-01-13T18:04:05.829Z,3.53
2023-01-13T18:06:32.773Z,2.60
2023-01-13T18:09:00.182Z,2.40
2023-01-13T18:11:27.420Z,3.50
2023-01-13T18:13:56.654Z,3.50
2023-01-13T18:16:24.354Z,3.33
2023-01-13T18:18:52.102Z,5.47
2023-01-13T18:21:37.418Z,1.55
2023-01-13T18:24:23.291Z,2.22
2023-01-13T18:27:08.637Z,1.42
2023-01-13T18:29:35.254Z,1.30
2023-01-13T18:32:01.778Z,3.45
2023-01-13T18:34:28.427Z,3.90
2023-01-13T18:36:54.950Z,3.13
2023-01-13T18:39:21.505Z,3.17
2023-01-13T18:42:06.434Z,4.22
2023-01-13T18:44:32.960Z,2.80
2023-01-13T18:46:59.487Z,3.65
2023-01-13T18:49:26.057Z,2.70
2023-01-13T18:51:52.641Z,2.75
2023-01-13T18:54:19.727Z,3.35
2023-01-13T18:56:46.963Z,2.22
2023-01-13T18:59:13.540Z,2.65
2023-01-13T19:01:40.369Z,3.58
2023-01-13T19:04:11.494Z,4.88
2023-01-13T19:06:40.349Z,3.80
2023-01-13T19:09:08.736Z,1.95
2023-01-13T19:11:38.708Z,2.75
2023-01-13T19:14:05.266Z,1.95
2023-01-13T19:16:31.765Z,3.70
2023-01-13T19:18:59.558Z,4.53
2023-01-13T19:21:26.084Z,5.60
2023-01-13T19:23:56.900Z,3.92
2023-01-13T19:26:23.535Z,3.10
2023-01-13T19:28:50.637Z,4.35
2023-01-13T19:31:17.228Z,2.40
2023-01-13T19:33:43.819Z,3.75
2023-01-13T19:36:10.745Z,3.15
2023-01-13T19:38:37.870Z,3.67
2023-01-13T19:41:11.653Z,1.52
2023-01-13T19:43:56.851Z,5.88
2023-01-13T19:46:26.324Z,2.38
2023-01-13T19:51:19.315Z,1.40
2023-01-13T19:53:46.887Z,3.20
2023-01-13T19:56:14.450Z,2.60
2023-01-13T19:58:42.058Z,1.55
2023-01-13T20:01:10.209Z,3.33
2023-01-13T20:03:37.735Z,3.33
2023-01-13T20:06:08.277Z,3.22
2023-01-13T20:08:34.817Z,1.38
2023-01-13T20:11:21.307Z,5.15
2023-01-13T20:13:49.217Z,3.20
2023-01-13T20:16:15.777Z,1.88
2023-01-13T20:18:42.335Z,3.65
2023-01-13T20:21:09.221Z,1.63
2023-01-13T20:23:35.887Z,2.75
2023-01-13T20:26:02.431Z,6.78
2023-01-13T20:28:28.996Z,1.23
2023-01-13T20:30:55.833Z,5.07
2023-01-13T20:33:22.368Z,6.72
2023-01-13T20:35:57.129Z,2.90
2023-01-13T20:38:23.733Z,4.10
2023-01-13T20:41:00.855Z,1.83
2023-01-13T20:43:27.790Z,2.22
2023-01-13T20:45:54.441Z,4.65
2023-01-13T20:48:20.984Z,3.10
2023-01-13T20:50:53.566Z,2.63
2023-01-13T20:53:20.104Z,2.88
2023-01-13T20:55:46.639Z,3.50
2023-01-13T20:58:13.130Z,5.28
2023-01-13T21:00:39.664Z,3.05
2023-01-13T21:03:06.459Z,3.03
2023-01-13T21:05:35.805Z,2.92
2023-01-13T21:08:02.694Z,3.42
2023-01-13T21:10:29.205Z,1.42
2023-01-13T21:13:14.281Z,3.05
2023-01-13T21:15:45.872Z,6.65
2023-01-13T21:18:30.904Z,3.75
2023-01-13T21:21:11.543Z,1.60
2023-01-13T21:23:43.116Z,2.13
2023-01-13T21:26:11.543Z,3.53
2023-01-13T21:28:38.128Z,3.78
2023-01-13T21:31:09.326Z,2.75
2023-01-13T21:33:36.359Z,3.75
2023-01-13T21:36:07.255Z,4.53
2023-01-13T21:38:34.050Z,5.35
2023-01-13T21:41:06.291Z,2.40
2023-01-13T21:43:51.801Z,2.47
2023-01-13T21:46:37.521Z,2.75
2023-01-13T21:49:04.691Z,4.00
2023-01-13T21:51:31.471Z,3.00
2023-01-13T21:53:58.051Z,2.05
2023-01-13T21:56:25.374Z,1.80
2023-01-13T21:58:52.147Z,3.15
2023-01-13T22:01:19.377Z,3.92
2023-01-13T22:04:04.564Z,3.30
2023-01-13T22:06:31.197Z,4.57
2023-01-13T22:09:00.980Z,2.53
2023-01-13T22:11:28.649Z,4.38
2023-01-13T22:14:08.649Z,2.75
2023-01-13T22:16:41.779Z,3.72
2023-01-13T22:19:10.101Z,4.05
2023-01-13T22:21:36.959Z,4.32
2023-01-13T22:24:03.564Z,5.53
2023-01-13T22:26:30.129Z,4.07
2023-01-13T22:28:56.850Z,6.35
2023-01-13T22:31:24.445Z,8.07
2023-01-13T22:33:55.372Z,6.03
2023-01-13T22:36:24.066Z,12.60
2023-01-13T22:38:57.162Z,5.18
2023-01-13T22:41:23.875Z,22.50
2023-01-13T22:43:50.414Z,9.45
2023-01-13T22:46:17.413Z,9.02
2023-01-13T22:48:45.919Z,3.28
2023-01-13T22:51:16.911Z,1.40
2023-01-13T22:53:43.632Z,2.58
2023-01-13T22:56:16.605Z,2.63
2023-01-13T22:58:43.939Z,1.67
2023-01-13T23:01:16.884Z,4.90
2023-01-13T23:03:47.622Z,2.85
2023-01-13T23:06:15.007Z,2.45
2023-01-13T23:08:41.705Z,2.45
2023-01-13T23:11:15.440Z,2.75
2023-01-13T23:13:43.270Z,3.60
2023-01-13T23:16:13.009Z,2.30
2023-01-13T23:18:42.566Z,2.63
2023-01-13T23:21:12.467Z,2.28
2023-01-13T23:23:39.749Z,2.03
2023-01-13T23:26:07.394Z,3.08
2023-01-13T23:28:35.302Z,4.70
2023-01-13T23:31:10.453Z,5.03
2023-01-13T23:33:41.354Z,2.92
2023-01-13T23:36:12.830Z,2.30
2023-01-13T23:38:40.323Z,1.92
2023-01-13T23:41:09.647Z,3.42
2023-01-13T23:43:36.239Z,2.05
2023-01-13T23:46:07.623Z,3.45
2023-01-13T23:48:34.332Z,2.97
2023-01-13T23:51:02.872Z,5.68
2023-01-13T23:53:40.407Z,3.25
2023-01-13T23:56:10.676Z,2.53
2023-01-13T23:58:37.292Z,2.50
